createdAt,value
2023-05-05T00:04:07.552Z,65.5
2023-05-05T00:16:07.490Z,65
2023-05-05T00:28:07.407Z,65
2023-05-05T00:40:07.883Z,65
2023-05-05T00:52:07.567Z,65
2023-05-05T01:04:07.537Z,65
2023-05-05T01:16:07.668Z,65
2023-05-05T01:28:07.625Z,64.5
2023-05-05T01:40:07.761Z,65
2023-05-05T01:52:07.535Z,65
2023-05-05T02:04:07.681Z,65.5
2023-05-05T02:16:07.690Z,65.5
2023-05-05T02:28:07.642Z,65.5
2023-05-05T02:40:07.852Z,65.5
2023-05-05T02:52:07.719Z,65.5
2023-05-05T03:04:07.734Z,65.5
2023-05-05T03:16:07.622Z,66
2023-05-05T03:28:07.592Z,66
2023-05-05T03:40:07.930Z,66
2023-05-05T03:52:07.709Z,66
2023-05-05T04:04:07.718Z,66
2023-05-05T04:16:07.964Z,66.5
2023-05-05T04:28:07.761Z,66.5
2023-05-05T04:40:07.883Z,66.5
2023-05-05T04:52:07.691Z,66.5
2023-05-05T05:04:07.862Z,66.5
2023-05-05T05:16:07.912Z,66.5
2023-05-05T05:28:10.471Z,66.5
2023-05-05T05:40:07.933Z,66.5
2023-05-05T05:52:07.932Z,67
2023-05-05T06:04:07.932Z,67
2023-05-05T06:16:07.872Z,66.5
2023-05-05T06:28:07.769Z,66.5
2023-05-05T06:40:08.217Z,66.5
2023-05-05T06:52:07.879Z,66.5
2023-05-05T07:04:07.973Z,66.5
2023-05-05T07:16:07.826Z,66
2023-05-05T07:28:08.077Z,66
2023-05-05T07:40:08.232Z,65.5
2023-05-05T07:52:07.994Z,65
2023-05-05T08:04:07.923Z,65
2023-05-05T08:16:08.197Z,64.5
2023-05-05T08:28:07.973Z,64
2023-05-05T08:40:08.221Z,63
2023-05-05T08:52:07.908Z,63
2023-05-05T09:04:08.160Z,63
2023-05-05T09:16:08.046Z,62.5
2023-05-05T09:28:08.059Z,62
2023-05-05T09:40:08.051Z,63
2023-05-05T09:52:08.249Z,63.5
2023-05-05T10:04:08.106Z,64
2023-05-05T10:16:08.230Z,64.5
2023-05-05T10:28:08.546Z,64.5
2023-05-05T10:40:08.490Z,63
2023-05-05T10:52:08.145Z,64
2023-05-05T11:04:08.256Z,65
2023-05-05T11:16:08.098Z,65
2023-05-05T11:28:08.330Z,65
2023-05-05T11:40:08.748Z,65
2023-05-05T11:52:08.176Z,63
2023-05-05T12:04:08.366Z,65.5
2023-05-05T12:16:08.276Z,66.5
2023-05-05T12:28:08.301Z,65.5
2023-05-05T12:40:08.620Z,63.5
2023-05-05T12:52:08.204Z,63.5
2023-05-05T13:04:08.490Z,63.5
2023-05-05T13:16:08.404Z,62
2023-05-05T13:28:08.430Z,63
2023-05-05T13:40:08.272Z,63.5
2023-05-05T13:52:08.260Z,64
2023-05-05T14:04:08.412Z,63.5
2023-05-05T14:16:08.413Z,59.5
2023-05-05T14:28:08.288Z,59.5
2023-05-05T14:40:08.405Z,60
2023-05-05T14:52:08.418Z,56.5
2023-05-05T15:04:08.479Z,51.5
2023-05-05T15:16:08.351Z,52
2023-05-05T15:28:08.584Z,52.5
2023-05-05T15:40:08.495Z,56.5
2023-05-05T15:52:08.636Z,57
2023-05-05T16:04:08.435Z,59
2023-05-05T16:16:30.314Z,60.5
2023-05-05T16:28:08.340Z,61
2023-05-05T16:40:08.939Z,57
2023-05-05T16:52:08.457Z,58
2023-05-05T17:04:08.525Z,59
2023-05-05T17:16:08.603Z,58.5
2023-05-05T17:28:08.640Z,60.5
2023-05-05T17:40:08.555Z,61.5
2023-05-05T17:52:08.485Z,61.5
2023-05-05T18:04:08.613Z,61
2023-05-05T18:16:08.634Z,62
2023-05-05T18:28:08.527Z,63
2023-05-05T18:40:08.697Z,63.5
2023-05-05T18:52:08.666Z,64
2023-05-05T19:04:15.740Z,64
2023-05-05T19:16:08.614Z,66
2023-05-05T19:28:08.680Z,67
2023-05-05T19:40:08.889Z,64
2023-05-05T19:52:08.739Z,64
2023-05-05T20:04:09.556Z,68
2023-05-05T20:16:08.706Z,70
2023-05-05T20:28:08.757Z,70
2023-05-05T20:40:09.051Z,68
2023-05-05T20:52:08.727Z,68
2023-05-05T21:04:09.058Z,68
2023-05-05T21:16:08.844Z,68
2023-05-05T21:28:08.991Z,68
2023-05-05T21:40:09.015Z,68
2023-05-05T21:52:09.037Z,68
2023-05-05T22:04:08.730Z,68
2023-05-05T22:16:08.977Z,68
2023-05-05T22:28:08.744Z,68
2023-05-05T22:40:09.001Z,68
2023-05-05T22:52:08.916Z,68.5
2023-05-05T23:04:08.979Z,68.5
2023-05-05T23:16:08.863Z,68.5
2023-05-05T23:28:08.886Z,68.5
2023-05-05T23:40:09.003Z,68.5
2023-05-05T23:52:08.928Z,68.5
